AAL487 KSFO-KCLT
Flight info
| Callsign | AAL487 |
|---|---|
| Flight time | N/A |
| Altitude | 31000 |
| Route | NIITE4 SYRAH Q128 JSICA KROST BCE DVC/N0448F330 KD48U DAAYE KD48W ZAROS GCK CNU SGF HUMBO BAZOO TAZZA FILPZ4 |
| Aircraft | A321/M-SDE3FGHIRWY/LB1 |
Departure
| Time | 2026-05-05 15:20 |
|---|---|
| Airport | San Francisco International Airport (KSFO) |
Arrival
| Time | N/A |
|---|---|
| Airport | Charlotte Douglas International Airport (KCLT) |
| Time | Latitude | Longitude | Altitude | Speed | Heading |
|---|---|---|---|---|---|
| 2026-05-05 15:16 | 37.61027 | -122.38896 | 22 ft | 11 kts | 212° |
| 2026-05-05 15:16 | 37.60961 | -122.38922 | 22 ft | 10 kts | 159° |
| 2026-05-05 15:17 | 37.60916 | -122.38844 | 24 ft | 12 kts | 119° |
| 2026-05-05 15:17 | 37.60873 | -122.38745 | 23 ft | 14 kts | 117° |
| 2026-05-05 15:17 | 37.60831 | -122.38637 | 25 ft | 14 kts | 116° |
| 2026-05-05 15:17 | 37.60786 | -122.38532 | 22 ft | 14 kts | 119° |
| 2026-05-05 15:18 | 37.60803 | -122.38440 | 22 ft | 10 kts | 27° |
| 2026-05-05 15:18 | 37.60845 | -122.38386 | 22 ft | 9 kts | 91° |
| 2026-05-05 15:18 | 37.60819 | -122.38317 | 23 ft | 9 kts | 117° |
| 2026-05-05 15:18 | 37.60845 | -122.38253 | 23 ft | 11 kts | 25° |
| 2026-05-05 15:19 | 37.60917 | -122.38207 | 22 ft | 12 kts | 28° |
| 2026-05-05 15:19 | 37.60990 | -122.38158 | 22 ft | 12 kts | 32° |
| 2026-05-05 15:19 | 37.61066 | -122.38102 | 23 ft | 18 kts | 25° |
| 2026-05-05 15:19 | 37.61392 | -122.37895 | 22 ft | 86 kts | 27° |
| 2026-05-05 15:20 | 37.62104 | -122.37426 | 22 ft | 142 kts | 27° |
| 2026-05-05 15:20 | 37.63114 | -122.36732 | 149 ft | 182 kts | 27° |
| 2026-05-05 15:20 | 37.64194 | -122.35965 | 1020 ft | 174 kts | 27° |
| 2026-05-05 15:20 | 37.65286 | -122.35296 | 1752 ft | 179 kts | 15° |
| 2026-05-05 15:21 | 37.66542 | -122.34871 | 1980 ft | 195 kts | 11° |
| 2026-05-05 15:21 | 37.67917 | -122.34526 | 2203 ft | 209 kts | 8° |
| 2026-05-05 15:21 | 37.69407 | -122.34166 | 2353 ft | 227 kts | 10° |
| 2026-05-05 15:21 | 37.71026 | -122.33730 | 2468 ft | 250 kts | 11° |
| 2026-05-05 15:22 | 37.72775 | -122.33416 | 2847 ft | 257 kts | 357° |
| 2026-05-05 15:22 | 37.74533 | -122.33815 | 3389 ft | 258 kts | 338° |
| 2026-05-05 15:22 | 37.76213 | -122.34632 | 3953 ft | 260 kts | 338° |
| 2026-05-05 15:22 | 37.77906 | -122.35458 | 4509 ft | 262 kts | 338° |
| 2026-05-05 15:23 | 37.79615 | -122.36292 | 5050 ft | 264 kts | 338° |
| 2026-05-05 15:23 | 37.81338 | -122.37133 | 5601 ft | 267 kts | 338° |
| 2026-05-05 15:23 | 37.83075 | -122.37979 | 6134 ft | 269 kts | 338° |
| 2026-05-05 15:23 | 37.84889 | -122.38586 | 6657 ft | 272 kts | 352° |
| 2026-05-05 15:24 | 37.86760 | -122.38637 | 7151 ft | 274 kts | 1° |
| 2026-05-05 15:24 | 37.88705 | -122.38563 | 7674 ft | 277 kts | 1° |
| 2026-05-05 15:24 | 37.90606 | -122.38458 | 8172 ft | 279 kts | 7° |
| 2026-05-05 15:24 | 37.92460 | -122.37721 | 8657 ft | 282 kts | 28° |
| 2026-05-05 15:25 | 37.93989 | -122.36155 | 9133 ft | 286 kts | 50° |
| 2026-05-05 15:25 | 37.94965 | -122.33960 | 9606 ft | 290 kts | 71° |
| 2026-05-05 15:25 | 37.95485 | -122.31482 | 10127 ft | 291 kts | 73° |
| 2026-05-05 15:25 | 37.95996 | -122.28935 | 10300 ft | 306 kts | 73° |
| 2026-05-05 15:26 | 37.96534 | -122.26258 | 10434 ft | 320 kts | 73° |
| 2026-05-05 15:26 | 37.97094 | -122.23459 | 10560 ft | 334 kts | 73° |
| 2026-05-05 15:26 | 37.97676 | -122.20556 | 10698 ft | 347 kts | 73° |
| 2026-05-05 15:26 | 37.98279 | -122.17554 | 11034 ft | 353 kts | 73° |
| 2026-05-05 15:27 | 37.98772 | -122.14507 | 11504 ft | 356 kts | 81° |
| 2026-05-05 15:27 | 37.98859 | -122.11347 | 12009 ft | 359 kts | 86° |
| 2026-05-05 15:27 | 37.98871 | -122.08181 | 12500 ft | 359 kts | 85° |
| 2026-05-05 15:27 | 37.98889 | -122.05012 | 12948 ft | 360 kts | 85° |
| 2026-05-05 15:28 | 37.98912 | -122.01828 | 13389 ft | 362 kts | 85° |
| 2026-05-05 15:28 | 37.98938 | -121.98632 | 13812 ft | 363 kts | 85° |
| 2026-05-05 15:28 | 37.98962 | -121.95429 | 14247 ft | 365 kts | 85° |
| 2026-05-05 15:28 | 37.98981 | -121.92205 | 14673 ft | 366 kts | 85° |
| 2026-05-05 15:29 | 37.98996 | -121.88972 | 15089 ft | 368 kts | 85° |
| 2026-05-05 15:29 | 37.99008 | -121.85718 | 15491 ft | 370 kts | 85° |
| 2026-05-05 15:29 | 37.99019 | -121.82455 | 15910 ft | 371 kts | 85° |
| 2026-05-05 15:29 | 37.99033 | -121.79176 | 16301 ft | 373 kts | 85° |
| 2026-05-05 15:30 | 37.99047 | -121.75884 | 16682 ft | 374 kts | 85° |
| 2026-05-05 15:30 | 37.99060 | -121.72580 | 17042 ft | 376 kts | 85° |
| 2026-05-05 15:30 | 37.99072 | -121.69257 | 17420 ft | 377 kts | 86° |
| 2026-05-05 15:30 | 37.99081 | -121.65928 | 17738 ft | 379 kts | 85° |
| 2026-05-05 15:31 | 37.99088 | -121.62579 | 18067 ft | 380 kts | 86° |
| 2026-05-05 15:31 | 37.99096 | -121.59226 | 18389 ft | 382 kts | 86° |
| 2026-05-05 15:31 | 37.99104 | -121.55855 | 18701 ft | 383 kts | 86° |
| 2026-05-05 15:31 | 37.99113 | -121.52467 | 19020 ft | 385 kts | 85° |
| 2026-05-05 15:32 | 37.99121 | -121.49071 | 19317 ft | 386 kts | 85° |
| 2026-05-05 15:32 | 37.99130 | -121.45657 | 19627 ft | 388 kts | 85° |
| 2026-05-05 15:32 | 37.99135 | -121.42228 | 19923 ft | 389 kts | 85° |
| 2026-05-05 15:32 | 37.99137 | -121.38792 | 20219 ft | 391 kts | 85° |
| 2026-05-05 15:33 | 37.99136 | -121.35338 | 20516 ft | 392 kts | 85° |
| 2026-05-05 15:33 | 37.99136 | -121.31879 | 20808 ft | 393 kts | 85° |
| 2026-05-05 15:33 | 37.99134 | -121.28403 | 21088 ft | 395 kts | 85° |
| 2026-05-05 15:33 | 37.99130 | -121.24917 | 21373 ft | 396 kts | 85° |
| 2026-05-05 15:34 | 37.99128 | -121.21416 | 21655 ft | 397 kts | 85° |
| 2026-05-05 15:34 | 37.99128 | -121.17907 | 21920 ft | 399 kts | 85° |
| 2026-05-05 15:34 | 37.99128 | -121.14389 | 22172 ft | 400 kts | 85° |
| 2026-05-05 15:34 | 37.99167 | -121.10861 | 22422 ft | 400 kts | 81° |
| 2026-05-05 15:35 | 37.99569 | -121.07391 | 22671 ft | 397 kts | 75° |
| 2026-05-05 15:35 | 38.00108 | -121.03957 | 22935 ft | 398 kts | 75° |
| 2026-05-05 15:35 | 38.00638 | -121.00554 | 23195 ft | 399 kts | 75° |
| 2026-05-05 15:35 | 38.01181 | -120.97055 | 23452 ft | 400 kts | 75° |
| 2026-05-05 15:36 | 38.01709 | -120.93637 | 23694 ft | 401 kts | 75° |
| 2026-05-05 15:36 | 38.02247 | -120.90160 | 23940 ft | 402 kts | 75° |
| 2026-05-05 15:36 | 38.02782 | -120.86677 | 24185 ft | 403 kts | 75° |
| 2026-05-05 15:36 | 38.03316 | -120.83188 | 24418 ft | 404 kts | 75° |
| 2026-05-05 15:37 | 38.03852 | -120.79685 | 24665 ft | 404 kts | 75° |
| 2026-05-05 15:37 | 38.04389 | -120.76181 | 24910 ft | 405 kts | 74° |
| 2026-05-05 15:37 | 38.04925 | -120.72676 | 25146 ft | 405 kts | 75° |
| 2026-05-05 15:37 | 38.05462 | -120.69166 | 25369 ft | 406 kts | 74° |
| 2026-05-05 15:38 | 38.05998 | -120.65645 | 25572 ft | 407 kts | 75° |
| 2026-05-05 15:38 | 38.06532 | -120.62118 | 25790 ft | 408 kts | 75° |
| 2026-05-05 15:38 | 38.06893 | -120.59730 | 25957 ft | 408 kts | 74° |
| 2026-05-05 15:38 | 38.07421 | -120.56240 | 26204 ft | 408 kts | 74° |
| 2026-05-05 15:39 | 38.07965 | -120.52658 | 26411 ft | 408 kts | 74° |
| 2026-05-05 15:39 | 38.08500 | -120.49121 | 26645 ft | 409 kts | 74° |
| 2026-05-05 15:39 | 38.09035 | -120.45575 | 26882 ft | 409 kts | 74° |
| 2026-05-05 15:39 | 38.09559 | -120.42076 | 27082 ft | 409 kts | 74° |
| 2026-05-05 15:40 | 38.10094 | -120.38476 | 27287 ft | 410 kts | 74° |
| 2026-05-05 15:40 | 38.10615 | -120.34971 | 27510 ft | 410 kts | 74° |
| 2026-05-05 15:40 | 38.11142 | -120.31419 | 27719 ft | 410 kts | 74° |
| 2026-05-05 15:40 | 38.11670 | -120.27860 | 27875 ft | 410 kts | 74° |
| 2026-05-05 15:41 | 38.12199 | -120.24299 | 28050 ft | 410 kts | 74° |
| 2026-05-05 15:41 | 38.12726 | -120.20742 | 28205 ft | 410 kts | 74° |
| 2026-05-05 15:41 | 38.13251 | -120.17179 | 28351 ft | 411 kts | 74° |
| 2026-05-05 15:41 | 38.13775 | -120.13610 | 28490 ft | 411 kts | 74° |
| 2026-05-05 15:42 | 38.14301 | -120.10048 | 28699 ft | 409 kts | 74° |
| 2026-05-05 15:42 | 38.14823 | -120.06505 | 28903 ft | 408 kts | 74° |
| 2026-05-05 15:42 | 38.15341 | -120.02973 | 29109 ft | 406 kts | 74° |
| 2026-05-05 15:42 | 38.15856 | -119.99448 | 29303 ft | 405 kts | 74° |
| 2026-05-05 15:43 | 38.16366 | -119.95934 | 29488 ft | 404 kts | 74° |
| 2026-05-05 15:43 | 38.16871 | -119.92426 | 29665 ft | 403 kts | 74° |
| 2026-05-05 15:43 | 38.17372 | -119.88937 | 29856 ft | 401 kts | 74° |
| 2026-05-05 15:43 | 38.17874 | -119.85451 | 30050 ft | 400 kts | 74° |
| 2026-05-05 15:44 | 38.18373 | -119.81980 | 30228 ft | 399 kts | 74° |
| 2026-05-05 15:44 | 38.18869 | -119.78512 | 30388 ft | 398 kts | 74° |
| 2026-05-05 15:44 | 38.19370 | -119.75047 | 30510 ft | 398 kts | 74° |
| 2026-05-05 15:44 | 38.19872 | -119.71589 | 30652 ft | 398 kts | 74° |
| 2026-05-05 15:45 | 38.20370 | -119.68134 | 30792 ft | 398 kts | 74° |
| 2026-05-05 15:45 | 38.20866 | -119.64683 | 30953 ft | 397 kts | 74° |
| 2026-05-05 15:45 | 38.21360 | -119.61234 | 31020 ft | 396 kts | 74° |
| 2026-05-05 15:46 | 38.22335 | -119.54361 | 31025 ft | 394 kts | 74° |
| 2026-05-05 15:46 | 38.23311 | -119.47500 | 31022 ft | 395 kts | 74° |
| 2026-05-05 15:47 | 38.24284 | -119.40619 | 31025 ft | 396 kts | 75° |
| 2026-05-05 15:47 | 38.25251 | -119.33716 | 31024 ft | 396 kts | 75° |
| 2026-05-05 15:48 | 38.26209 | -119.26855 | 31023 ft | 397 kts | 75° |
| 2026-05-05 15:48 | 38.27173 | -119.19950 | 31019 ft | 397 kts | 75° |
| 2026-05-05 15:49 | 38.28129 | -119.13025 | 31017 ft | 398 kts | 75° |
| 2026-05-05 15:49 | 38.29085 | -119.06082 | 31017 ft | 398 kts | 75° |
| 2026-05-05 15:50 | 38.30036 | -118.99142 | 31013 ft | 399 kts | 75° |
| 2026-05-05 15:50 | 38.30988 | -118.92174 | 31008 ft | 400 kts | 75° |
| 2026-05-05 15:51 | 38.31937 | -118.85190 | 31006 ft | 401 kts | 75° |
| 2026-05-05 15:51 | 38.32882 | -118.78191 | 31003 ft | 401 kts | 75° |
| 2026-05-05 15:52 | 38.33828 | -118.71179 | 31002 ft | 402 kts | 75° |
| 2026-05-05 15:52 | 38.34774 | -118.64153 | 31003 ft | 403 kts | 75° |
| 2026-05-05 15:53 | 38.35717 | -118.57113 | 31002 ft | 404 kts | 76° |
| 2026-05-05 15:53 | 38.36651 | -118.50060 | 31002 ft | 404 kts | 76° |
| 2026-05-05 15:54 | 38.37581 | -118.42996 | 31004 ft | 404 kts | 76° |
| 2026-05-05 15:54 | 38.38510 | -118.35921 | 31008 ft | 405 kts | 76° |
| 2026-05-05 15:55 | 38.39443 | -118.28835 | 31014 ft | 406 kts | 76° |
| 2026-05-05 15:55 | 38.40365 | -118.21740 | 31017 ft | 406 kts | 76° |
| 2026-05-05 15:56 | 38.41279 | -118.14637 | 31018 ft | 406 kts | 76° |
| 2026-05-05 15:56 | 38.42199 | -118.07522 | 31018 ft | 406 kts | 76° |
| 2026-05-05 15:57 | 38.43112 | -118.00418 | 31016 ft | 406 kts | 76° |
| 2026-05-05 15:57 | 38.44011 | -117.93345 | 31010 ft | 407 kts | 76° |
| 2026-05-05 15:58 | 38.44925 | -117.86165 | 31003 ft | 408 kts | 76° |
| 2026-05-05 15:58 | 38.45834 | -117.79015 | 31002 ft | 408 kts | 76° |
| 2026-05-05 15:59 | 38.46737 | -117.71856 | 30995 ft | 409 kts | 76° |
| 2026-05-05 15:59 | 38.47626 | -117.64735 | 30992 ft | 409 kts | 77° |
| 2026-05-05 16:00 | 38.48525 | -117.57509 | 30989 ft | 410 kts | 77° |
| 2026-05-05 16:00 | 38.49413 | -117.50360 | 30989 ft | 411 kts | 77° |
| 2026-05-05 16:01 | 38.50298 | -117.43153 | 30987 ft | 412 kts | 77° |
| 2026-05-05 16:01 | 38.51181 | -117.35923 | 30990 ft | 413 kts | 77° |
| 2026-05-05 16:02 | 38.51911 | -117.28642 | 30990 ft | 417 kts | 85° |
| 2026-05-05 16:02 | 38.51425 | -117.21192 | 30991 ft | 423 kts | 92° |
| 2026-05-05 16:03 | 38.50759 | -117.13731 | 30987 ft | 424 kts | 92° |
| 2026-05-05 16:03 | 38.50090 | -117.06250 | 30983 ft | 425 kts | 92° |
| 2026-05-05 16:04 | 38.49424 | -116.98747 | 30983 ft | 426 kts | 92° |
| 2026-05-05 16:04 | 38.48755 | -116.91236 | 30982 ft | 427 kts | 93° |
| 2026-05-05 16:05 | 38.48073 | -116.83698 | 30982 ft | 428 kts | 93° |
| 2026-05-05 16:05 | 38.47386 | -116.76128 | 30982 ft | 430 kts | 94° |
| 2026-05-05 16:06 | 38.46693 | -116.68539 | 30982 ft | 431 kts | 94° |
| 2026-05-05 16:06 | 38.45991 | -116.60985 | 30982 ft | 432 kts | 94° |
| 2026-05-05 16:07 | 38.45283 | -116.53361 | 30980 ft | 433 kts | 94° |
| 2026-05-05 16:07 | 38.44573 | -116.45714 | 30983 ft | 435 kts | 95° |
| 2026-05-05 16:08 | 38.43846 | -116.38043 | 30986 ft | 437 kts | 95° |
| 2026-05-05 16:08 | 38.43106 | -116.30292 | 30998 ft | 444 kts | 95° |
| 2026-05-05 16:09 | 38.42345 | -116.22426 | 31000 ft | 450 kts | 96° |
| 2026-05-05 16:09 | 38.41196 | -116.14551 | 30999 ft | 455 kts | 101° |
| 2026-05-05 16:10 | 38.39842 | -116.06639 | 30997 ft | 459 kts | 101° |
| 2026-05-05 16:10 | 38.38472 | -115.98653 | 30990 ft | 463 kts | 101° |
| 2026-05-05 16:11 | 38.37091 | -115.90611 | 30990 ft | 466 kts | 101° |
| 2026-05-05 16:12 | 38.34298 | -115.74456 | 30998 ft | 468 kts | 102° |
| 2026-05-05 16:13 | 38.30775 | -115.54225 | 31011 ft | 468 kts | 102° |
| 2026-05-05 16:13 | 38.29354 | -115.46132 | 31014 ft | 468 kts | 102° |
| 2026-05-05 16:14 | 38.26477 | -115.29958 | 31006 ft | 468 kts | 102° |
| 2026-05-05 16:15 | 38.23596 | -115.13793 | 31000 ft | 469 kts | 102° |
| 2026-05-05 16:16 | 38.20679 | -114.97604 | 30993 ft | 470 kts | 103° |
| 2026-05-05 16:17 | 38.18474 | -114.85469 | 30993 ft | 470 kts | 103° |
| 2026-05-05 16:18 | 38.16250 | -114.73315 | 30986 ft | 471 kts | 103° |
| 2026-05-05 16:19 | 38.14018 | -114.61189 | 30985 ft | 472 kts | 104° |
| 2026-05-05 16:19 | 38.11773 | -114.49003 | 30983 ft | 473 kts | 104° |
| 2026-05-05 16:20 | 38.08737 | -114.32745 | 30987 ft | 474 kts | 105° |
| 2026-05-05 16:22 | 38.04904 | -114.12340 | 30982 ft | 475 kts | 105° |
| 2026-05-05 16:23 | 38.01825 | -113.96123 | 30984 ft | 475 kts | 105° |
| 2026-05-05 16:23 | 37.99496 | -113.83929 | 30988 ft | 475 kts | 105° |
| 2026-05-05 16:24 | 37.97931 | -113.75793 | 30989 ft | 475 kts | 106° |
| 2026-05-05 16:25 | 37.95562 | -113.63581 | 30985 ft | 476 kts | 106° |
| 2026-05-05 16:25 | 37.93452 | -113.52725 | 30981 ft | 478 kts | 106° |
| 2026-05-05 16:26 | 37.90267 | -113.36355 | 30970 ft | 480 kts | 107° |
| 2026-05-05 16:27 | 37.88646 | -113.28138 | 30966 ft | 482 kts | 107° |
| 2026-05-05 16:27 | 37.87015 | -113.19884 | 30963 ft | 484 kts | 108° |
| 2026-05-05 16:28 | 37.85373 | -113.11598 | 30964 ft | 486 kts | 108° |
| 2026-05-05 16:28 | 37.83722 | -113.03291 | 30965 ft | 488 kts | 108° |
| 2026-05-05 16:29 | 37.82055 | -112.94950 | 30965 ft | 490 kts | 108° |
| 2026-05-05 16:29 | 37.80378 | -112.86579 | 30971 ft | 492 kts | 109° |
| 2026-05-05 16:30 | 37.78682 | -112.78187 | 30976 ft | 494 kts | 109° |
| 2026-05-05 16:30 | 37.76983 | -112.69769 | 30988 ft | 495 kts | 109° |
| 2026-05-05 16:31 | 37.75273 | -112.61337 | 31002 ft | 496 kts | 109° |
| 2026-05-05 16:31 | 37.73554 | -112.52889 | 31008 ft | 497 kts | 109° |
| 2026-05-05 16:32 | 37.71823 | -112.44441 | 31019 ft | 497 kts | 109° |
| 2026-05-05 16:32 | 37.70080 | -112.35974 | 31028 ft | 498 kts | 109° |
| 2026-05-05 16:33 | 37.69092 | -112.27271 | 31032 ft | 508 kts | 92° |
| 2026-05-05 16:33 | 37.69516 | -112.18395 | 31038 ft | 510 kts | 90° |
| 2026-05-05 16:34 | 37.69961 | -112.09460 | 31042 ft | 510 kts | 90° |
| 2026-05-05 16:34 | 37.70379 | -112.00520 | 31043 ft | 510 kts | 90° |
| 2026-05-05 16:35 | 37.70797 | -111.91577 | 31040 ft | 510 kts | 90° |
| 2026-05-05 16:35 | 37.71210 | -111.82629 | 31031 ft | 511 kts | 90° |
| 2026-05-05 16:36 | 37.71613 | -111.73678 | 31025 ft | 511 kts | 90° |
| 2026-05-05 16:36 | 37.72019 | -111.64707 | 31016 ft | 512 kts | 90° |
| 2026-05-05 16:37 | 37.72415 | -111.55729 | 31002 ft | 513 kts | 91° |
| 2026-05-05 16:37 | 37.72798 | -111.46716 | 30994 ft | 515 kts | 91° |
| 2026-05-05 16:38 | 37.73176 | -111.37659 | 30982 ft | 517 kts | 91° |
| 2026-05-05 16:38 | 37.73557 | -111.28574 | 30970 ft | 519 kts | 91° |
| 2026-05-05 16:39 | 37.73934 | -111.19431 | 30939 ft | 524 kts | 92° |
| 2026-05-05 16:39 | 37.74304 | -111.10219 | 30942 ft | 526 kts | 92° |
| 2026-05-05 16:40 | 37.74674 | -111.00985 | 30915 ft | 527 kts | 92° |
| 2026-05-05 16:40 | 37.75022 | -110.91819 | 30915 ft | 526 kts | 92° |
| 2026-05-05 16:41 | 37.75354 | -110.82542 | 30906 ft | 531 kts | 93° |
| 2026-05-05 16:41 | 37.75695 | -110.73199 | 30908 ft | 533 kts | 93° |
| 2026-05-05 16:42 | 37.76036 | -110.63805 | 30918 ft | 536 kts | 92° |
| 2026-05-05 16:42 | 37.76377 | -110.54395 | 30916 ft | 536 kts | 92° |
| 2026-05-05 16:43 | 37.76710 | -110.44979 | 30914 ft | 537 kts | 92° |
| 2026-05-05 16:43 | 37.77027 | -110.35519 | 30942 ft | 538 kts | 92° |
| 2026-05-05 16:44 | 37.77320 | -110.26058 | 30938 ft | 538 kts | 92° |
| 2026-05-05 16:44 | 37.77618 | -110.16594 | 30941 ft | 540 kts | 92° |
| 2026-05-05 16:45 | 37.77926 | -110.07114 | 30947 ft | 540 kts | 92° |
| 2026-05-05 16:45 | 37.78229 | -109.97603 | 30967 ft | 542 kts | 92° |
| 2026-05-05 16:46 | 37.78517 | -109.88093 | 30967 ft | 540 kts | 93° |
| 2026-05-05 16:46 | 37.78780 | -109.78601 | 30960 ft | 541 kts | 93° |
| 2026-05-05 16:47 | 37.79034 | -109.69096 | 30978 ft | 542 kts | 93° |
| 2026-05-05 16:47 | 37.79291 | -109.59572 | 30984 ft | 543 kts | 93° |
| 2026-05-05 16:48 | 37.79542 | -109.50018 | 30989 ft | 544 kts | 93° |
| 2026-05-05 16:48 | 37.79779 | -109.40457 | 30988 ft | 545 kts | 93° |
| 2026-05-05 16:49 | 37.80014 | -109.30858 | 30980 ft | 547 kts | 93° |
| 2026-05-05 16:49 | 37.80244 | -109.21245 | 30986 ft | 548 kts | 94° |
| 2026-05-05 16:50 | 37.80468 | -109.11596 | 30981 ft | 550 kts | 94° |
| 2026-05-05 16:50 | 37.80681 | -109.01922 | 30983 ft | 551 kts | 94° |
| 2026-05-05 16:51 | 37.80896 | -108.92212 | 30980 ft | 554 kts | 93° |
| 2026-05-05 16:51 | 37.81466 | -108.82446 | 30985 ft | 560 kts | 88° |
| 2026-05-05 16:52 | 37.82397 | -108.72633 | 31000 ft | 563 kts | 88° |
| 2026-05-05 16:52 | 37.83284 | -108.62791 | 31002 ft | 564 kts | 89° |
| 2026-05-05 16:53 | 37.84006 | -108.52911 | 31012 ft | 564 kts | 90° |
| 2026-05-05 16:53 | 37.84680 | -108.43015 | 31009 ft | 566 kts | 90° |
| 2026-05-05 16:54 | 37.85386 | -108.33092 | 31018 ft | 567 kts | 90° |
| 2026-05-05 16:54 | 37.86117 | -108.23144 | 31029 ft | 568 kts | 90° |
| 2026-05-05 16:55 | 37.86838 | -108.13194 | 31031 ft | 568 kts | 90° |
| 2026-05-05 16:55 | 37.87542 | -108.03245 | 31038 ft | 568 kts | 90° |
| 2026-05-05 16:56 | 37.88233 | -107.93287 | 31040 ft | 568 kts | 90° |
| 2026-05-05 16:56 | 37.88910 | -107.83390 | 31046 ft | 568 kts | 90° |
| 2026-05-05 16:57 | 37.89594 | -107.73441 | 31030 ft | 568 kts | 90° |
| 2026-05-05 16:57 | 37.90267 | -107.63483 | 31026 ft | 568 kts | 90° |
| 2026-05-05 16:58 | 37.90924 | -107.53523 | 31027 ft | 568 kts | 90° |
| 2026-05-05 16:58 | 37.91572 | -107.43561 | 31007 ft | 567 kts | 90° |
| 2026-05-05 16:59 | 37.92207 | -107.33607 | 30996 ft | 567 kts | 90° |
| 2026-05-05 16:59 | 37.92844 | -107.23647 | 30993 ft | 568 kts | 90° |
| 2026-05-05 17:00 | 37.93478 | -107.13667 | 30993 ft | 569 kts | 90° |
| 2026-05-05 17:00 | 37.94096 | -107.03674 | 30988 ft | 570 kts | 90° |
| 2026-05-05 17:01 | 37.94709 | -106.93652 | 31004 ft | 572 kts | 90° |
| 2026-05-05 17:01 | 37.95314 | -106.83598 | 30995 ft | 573 kts | 90° |
| 2026-05-05 17:02 | 37.95917 | -106.73543 | 30996 ft | 573 kts | 91° |
| 2026-05-05 17:02 | 37.96503 | -106.63481 | 30983 ft | 573 kts | 90° |
| 2026-05-05 17:03 | 37.97079 | -106.53401 | 30985 ft | 575 kts | 91° |
| 2026-05-05 17:03 | 37.97647 | -106.43277 | 30986 ft | 576 kts | 90° |
| 2026-05-05 17:04 | 37.98215 | -106.33164 | 30996 ft | 575 kts | 90° |
| 2026-05-05 17:04 | 37.98786 | -106.23054 | 31002 ft | 576 kts | 90° |
| 2026-05-05 17:05 | 37.99341 | -106.12917 | 31009 ft | 577 kts | 91° |
| 2026-05-05 17:05 | 37.99865 | -106.02767 | 31012 ft | 577 kts | 91° |
| 2026-05-05 17:06 | 38.00383 | -105.92613 | 31000 ft | 577 kts | 91° |
| 2026-05-05 17:06 | 38.00905 | -105.82463 | 31006 ft | 577 kts | 91° |
| 2026-05-05 17:07 | 38.01317 | -105.72327 | 31129 ft | 574 kts | 94° |
| 2026-05-05 17:07 | 38.01356 | -105.67279 | 31296 ft | 571 kts | 96° |
| 2026-05-05 17:07 | 38.01309 | -105.62255 | 31469 ft | 570 kts | 96° |
| 2026-05-05 17:08 | 38.01224 | -105.57235 | 31615 ft | 570 kts | 97° |
| 2026-05-05 17:08 | 38.01142 | -105.52214 | 31739 ft | 568 kts | 97° |
| 2026-05-05 17:08 | 38.01089 | -105.47214 | 31873 ft | 567 kts | 96° |
| 2026-05-05 17:08 | 38.01069 | -105.42215 | 31986 ft | 566 kts | 95° |
| 2026-05-05 17:09 | 38.01069 | -105.37223 | 32108 ft | 566 kts | 95° |
| 2026-05-05 17:09 | 38.01078 | -105.32308 | 32231 ft | 565 kts | 95° |
| 2026-05-05 17:09 | 38.01087 | -105.27327 | 32345 ft | 564 kts | 95° |
| 2026-05-05 17:09 | 38.01087 | -105.22291 | 32492 ft | 563 kts | 95° |
| 2026-05-05 17:10 | 38.01077 | -105.17388 | 32602 ft | 563 kts | 95° |
| 2026-05-05 17:10 | 38.01057 | -105.12369 | 32716 ft | 562 kts | 95° |
| 2026-05-05 17:10 | 38.01030 | -105.07488 | 32848 ft | 561 kts | 96° |
| 2026-05-05 17:10 | 38.00997 | -105.02544 | 32997 ft | 560 kts | 96° |
| 2026-05-05 17:11 | 38.00933 | -104.92655 | 33025 ft | 562 kts | 95° |
| 2026-05-05 17:11 | 38.00871 | -104.82716 | 33037 ft | 566 kts | 95° |
| 2026-05-05 17:12 | 38.00812 | -104.74332 | 33030 ft | 569 kts | 95° |
| 2026-05-05 17:12 | 38.00718 | -104.62637 | 33018 ft | 573 kts | 95° |
| 2026-05-05 17:13 | 38.00641 | -104.54220 | 33017 ft | 575 kts | 95° |
| 2026-05-05 17:13 | 38.00542 | -104.44069 | 33025 ft | 577 kts | 95° |
| 2026-05-05 17:14 | 38.00439 | -104.33893 | 33024 ft | 578 kts | 95° |
| 2026-05-05 17:14 | 38.00326 | -104.23688 | 33035 ft | 579 kts | 95° |
| 2026-05-05 17:15 | 38.00207 | -104.13481 | 33038 ft | 579 kts | 95° |
| 2026-05-05 17:15 | 38.00073 | -104.03268 | 33047 ft | 580 kts | 95° |
| 2026-05-05 17:16 | 37.99955 | -103.93046 | 33053 ft | 580 kts | 94° |
| 2026-05-05 17:16 | 37.99959 | -103.82810 | 33058 ft | 581 kts | 94° |
| 2026-05-05 17:17 | 37.99993 | -103.72563 | 33061 ft | 581 kts | 94° |
| 2026-05-05 17:17 | 37.99992 | -103.62324 | 33068 ft | 581 kts | 94° |
| 2026-05-05 17:18 | 37.99953 | -103.52071 | 33068 ft | 581 kts | 94° |
| 2026-05-05 17:18 | 37.99895 | -103.41834 | 33065 ft | 581 kts | 94° |
| 2026-05-05 17:19 | 37.99856 | -103.31593 | 33065 ft | 581 kts | 94° |
| 2026-05-05 17:19 | 37.99812 | -103.21334 | 33064 ft | 582 kts | 94° |
| 2026-05-05 17:20 | 37.99742 | -103.11071 | 33065 ft | 583 kts | 94° |
| 2026-05-05 17:20 | 37.99659 | -103.00798 | 33067 ft | 583 kts | 94° |
| 2026-05-05 17:21 | 37.99575 | -102.90523 | 33067 ft | 583 kts | 94° |
| 2026-05-05 17:22 | 37.99435 | -102.75098 | 33068 ft | 584 kts | 94° |
| 2026-05-05 17:22 | 37.99327 | -102.64796 | 33069 ft | 584 kts | 94° |
| 2026-05-05 17:23 | 37.99210 | -102.54496 | 33068 ft | 585 kts | 94° |
| 2026-05-05 17:23 | 37.99091 | -102.44263 | 33067 ft | 585 kts | 94° |
| 2026-05-05 17:24 | 37.98958 | -102.33961 | 33068 ft | 585 kts | 94° |
| 2026-05-05 17:24 | 37.98685 | -102.23655 | 33062 ft | 584 kts | 96° |
| 2026-05-05 17:25 | 37.98230 | -102.13372 | 33061 ft | 584 kts | 97° |
| 2026-05-05 17:25 | 37.97759 | -102.03107 | 33060 ft | 584 kts | 96° |
| 2026-05-05 17:26 | 37.97344 | -101.92827 | 33060 ft | 584 kts | 96° |
| 2026-05-05 17:26 | 37.96951 | -101.82544 | 33058 ft | 584 kts | 96° |
| 2026-05-05 17:27 | 37.96537 | -101.72253 | 33060 ft | 585 kts | 96° |
| 2026-05-05 17:27 | 37.96094 | -101.61967 | 33060 ft | 585 kts | 96° |
| 2026-05-05 17:28 | 37.95635 | -101.51688 | 33059 ft | 585 kts | 96° |
| 2026-05-05 17:28 | 37.95180 | -101.41387 | 33066 ft | 585 kts | 96° |
| 2026-05-05 17:29 | 37.94725 | -101.31095 | 33073 ft | 585 kts | 96° |
| 2026-05-05 17:29 | 37.94259 | -101.20797 | 33081 ft | 586 kts | 96° |
| 2026-05-05 17:30 | 37.93784 | -101.10494 | 33086 ft | 586 kts | 96° |
| 2026-05-05 17:30 | 37.93288 | -101.00179 | 33080 ft | 586 kts | 96° |
| 2026-05-05 17:31 | 37.92785 | -100.89874 | 33069 ft | 586 kts | 96° |
| 2026-05-05 17:31 | 37.92284 | -100.79633 | 33053 ft | 587 kts | 96° |
| 2026-05-05 17:32 | 37.91777 | -100.69323 | 33041 ft | 587 kts | 96° |
| 2026-05-05 17:32 | 37.91372 | -100.59001 | 33038 ft | 587 kts | 95° |
| 2026-05-05 17:33 | 37.91044 | -100.48662 | 33043 ft | 588 kts | 94° |
| 2026-05-05 17:33 | 37.90688 | -100.38330 | 33042 ft | 587 kts | 95° |
| 2026-05-05 17:34 | 37.90285 | -100.28017 | 33043 ft | 586 kts | 95° |
| 2026-05-05 17:34 | 37.89866 | -100.17698 | 33032 ft | 586 kts | 95° |
| 2026-05-05 17:35 | 37.89449 | -100.07386 | 33034 ft | 587 kts | 95° |
| 2026-05-05 17:35 | 37.89025 | -99.97071 | 33029 ft | 587 kts | 95° |
| 2026-05-05 17:36 | 37.88596 | -99.86763 | 33030 ft | 586 kts | 95° |
| 2026-05-05 17:36 | 37.88155 | -99.76456 | 33029 ft | 586 kts | 95° |
| 2026-05-05 17:37 | 37.87703 | -99.66221 | 33033 ft | 586 kts | 95° |
| 2026-05-05 17:37 | 37.87240 | -99.55927 | 33029 ft | 586 kts | 95° |
| 2026-05-05 17:38 | 37.86766 | -99.45621 | 33033 ft | 587 kts | 95° |
| 2026-05-05 17:38 | 37.86289 | -99.35308 | 33033 ft | 587 kts | 95° |
| 2026-05-05 17:39 | 37.85805 | -99.25008 | 33030 ft | 587 kts | 95° |
| 2026-05-05 17:39 | 37.85308 | -99.14707 | 33031 ft | 586 kts | 95° |
| 2026-05-05 17:40 | 37.84802 | -99.04403 | 33028 ft | 587 kts | 95° |
| 2026-05-05 17:40 | 37.84290 | -98.94101 | 33032 ft | 587 kts | 95° |
| 2026-05-05 17:41 | 37.83771 | -98.83798 | 33031 ft | 587 kts | 95° |
| 2026-05-05 17:41 | 37.83238 | -98.73490 | 33027 ft | 587 kts | 95° |
| 2026-05-05 17:42 | 37.82692 | -98.63187 | 33021 ft | 587 kts | 95° |
| 2026-05-05 17:42 | 37.82137 | -98.52881 | 33022 ft | 587 kts | 95° |
| 2026-05-05 17:43 | 37.81580 | -98.42649 | 33023 ft | 588 kts | 95° |
| 2026-05-05 17:43 | 37.81013 | -98.32336 | 33023 ft | 588 kts | 95° |
| 2026-05-05 17:44 | 37.80436 | -98.22041 | 33020 ft | 588 kts | 94° |
| 2026-05-05 17:44 | 37.79850 | -98.11724 | 33019 ft | 587 kts | 94° |
| 2026-05-05 17:45 | 37.79256 | -98.01426 | 33013 ft | 587 kts | 95° |
| 2026-05-05 17:45 | 37.78645 | -97.91143 | 33008 ft | 587 kts | 95° |
| 2026-05-05 17:46 | 37.78024 | -97.80859 | 33007 ft | 587 kts | 95° |
| 2026-05-05 17:46 | 37.77398 | -97.70567 | 33002 ft | 587 kts | 95° |
| 2026-05-05 17:47 | 37.76773 | -97.60279 | 32996 ft | 587 kts | 95° |
| 2026-05-05 17:47 | 37.76135 | -97.50013 | 32995 ft | 587 kts | 95° |
| 2026-05-05 17:48 | 37.75482 | -97.39733 | 32998 ft | 587 kts | 95° |
| 2026-05-05 17:48 | 37.74822 | -97.29452 | 32996 ft | 587 kts | 95° |
| 2026-05-05 17:49 | 37.74162 | -97.19184 | 32996 ft | 586 kts | 95° |
| 2026-05-05 17:49 | 37.73487 | -97.08925 | 32987 ft | 587 kts | 95° |
| 2026-05-05 17:50 | 37.72796 | -96.98652 | 32997 ft | 587 kts | 95° |
| 2026-05-05 17:50 | 37.72102 | -96.88374 | 32995 ft | 587 kts | 95° |
| 2026-05-05 17:51 | 37.71406 | -96.78088 | 32995 ft | 588 kts | 95° |
| 2026-05-05 17:51 | 37.70697 | -96.67814 | 32997 ft | 587 kts | 95° |
| 2026-05-05 17:52 | 37.69973 | -96.57617 | 32998 ft | 587 kts | 95° |
| 2026-05-05 17:52 | 37.69243 | -96.47358 | 32996 ft | 586 kts | 95° |
| 2026-05-05 17:53 | 37.68511 | -96.37104 | 32995 ft | 587 kts | 95° |
| 2026-05-05 17:53 | 37.67767 | -96.26858 | 32996 ft | 586 kts | 95° |
| 2026-05-05 17:54 | 37.67011 | -96.16619 | 32995 ft | 586 kts | 95° |
| 2026-05-05 17:54 | 37.66250 | -96.06374 | 32993 ft | 586 kts | 95° |
| 2026-05-05 17:55 | 37.65473 | -95.96149 | 32982 ft | 586 kts | 95° |
| 2026-05-05 17:55 | 37.64691 | -95.85923 | 32976 ft | 585 kts | 95° |
| 2026-05-05 17:56 | 37.63910 | -95.75710 | 32963 ft | 585 kts | 95° |
| 2026-05-05 17:56 | 37.63109 | -95.65501 | 32957 ft | 585 kts | 95° |
| 2026-05-05 17:57 | 37.62266 | -95.55308 | 32956 ft | 584 kts | 97° |
| 2026-05-05 17:57 | 37.61174 | -95.45158 | 32959 ft | 584 kts | 99° |
| 2026-05-05 17:58 | 37.59947 | -95.35051 | 32963 ft | 583 kts | 99° |
| 2026-05-05 17:58 | 37.58775 | -95.25006 | 32957 ft | 582 kts | 98° |
| 2026-05-05 17:59 | 37.57654 | -95.14838 | 32953 ft | 581 kts | 98° |
| 2026-05-05 17:59 | 37.56535 | -95.04824 | 32953 ft | 581 kts | 98° |
| 2026-05-05 18:00 | 37.55374 | -94.94750 | 32955 ft | 580 kts | 99° |
| 2026-05-05 18:00 | 37.54203 | -94.84705 | 32956 ft | 579 kts | 99° |
| 2026-05-05 18:01 | 37.53037 | -94.74677 | 32952 ft | 578 kts | 99° |
| 2026-05-05 18:01 | 37.51865 | -94.64667 | 32946 ft | 578 kts | 99° |
| 2026-05-05 18:02 | 37.50679 | -94.54659 | 32935 ft | 577 kts | 100° |
| 2026-05-05 18:02 | 37.49478 | -94.44634 | 32896 ft | 581 kts | 100° |
| 2026-05-05 18:03 | 37.48264 | -94.34565 | 32902 ft | 583 kts | 100° |
| 2026-05-05 18:03 | 37.47047 | -94.24466 | 32911 ft | 584 kts | 100° |
| 2026-05-05 18:04 | 37.45815 | -94.14345 | 32919 ft | 585 kts | 100° |
| 2026-05-05 18:04 | 37.44777 | -94.05930 | 32927 ft | 586 kts | 100° |
| 2026-05-05 18:05 | 37.43517 | -93.95799 | 32927 ft | 586 kts | 100° |
| 2026-05-05 18:05 | 37.42256 | -93.85670 | 32925 ft | 586 kts | 100° |
| 2026-05-05 18:06 | 37.40997 | -93.75547 | 32918 ft | 586 kts | 100° |
| 2026-05-05 18:06 | 37.39722 | -93.65423 | 32917 ft | 586 kts | 100° |
| 2026-05-05 18:07 | 37.38436 | -93.55318 | 32910 ft | 586 kts | 100° |
| 2026-05-05 18:07 | 37.37142 | -93.45209 | 32914 ft | 585 kts | 100° |
| 2026-05-05 18:08 | 37.35837 | -93.35103 | 32903 ft | 585 kts | 100° |
| 2026-05-05 18:08 | 37.34312 | -93.25075 | 32899 ft | 584 kts | 104° |
| 2026-05-05 18:09 | 37.32452 | -93.15145 | 32906 ft | 583 kts | 105° |
| 2026-05-05 18:09 | 37.30536 | -93.05248 | 32913 ft | 583 kts | 105° |
| 2026-05-05 18:10 | 37.28726 | -92.95313 | 32914 ft | 583 kts | 104° |
| 2026-05-05 18:10 | 37.26971 | -92.85376 | 32920 ft | 583 kts | 104° |
| 2026-05-05 18:11 | 37.25182 | -92.75458 | 32929 ft | 583 kts | 104° |
| 2026-05-05 18:11 | 37.23350 | -92.65552 | 32931 ft | 583 kts | 104° |
| 2026-05-05 18:12 | 37.21513 | -92.55659 | 32929 ft | 583 kts | 104° |
| 2026-05-05 18:12 | 37.19677 | -92.45757 | 32924 ft | 582 kts | 104° |
| 2026-05-05 18:13 | 37.17841 | -92.35876 | 32918 ft | 582 kts | 104° |
| 2026-05-05 18:13 | 37.15988 | -92.25986 | 32906 ft | 582 kts | 104° |
| 2026-05-05 18:14 | 37.14132 | -92.16119 | 32905 ft | 582 kts | 104° |
| 2026-05-05 18:14 | 37.12267 | -92.06258 | 32885 ft | 582 kts | 104° |
| 2026-05-05 18:15 | 37.10395 | -91.96403 | 32883 ft | 581 kts | 104° |
| 2026-05-05 18:15 | 37.08514 | -91.86552 | 32886 ft | 581 kts | 104° |
| 2026-05-05 18:16 | 37.06622 | -91.76727 | 32888 ft | 580 kts | 104° |
| 2026-05-05 18:16 | 37.04727 | -91.66906 | 32888 ft | 580 kts | 104° |
| 2026-05-05 18:17 | 37.02835 | -91.57098 | 32891 ft | 579 kts | 104° |
| 2026-05-05 18:17 | 37.00928 | -91.47304 | 32894 ft | 579 kts | 104° |
| 2026-05-05 18:18 | 36.99013 | -91.37529 | 32890 ft | 579 kts | 104° |
| 2026-05-05 18:18 | 36.97096 | -91.27751 | 32892 ft | 578 kts | 104° |
| 2026-05-05 18:19 | 36.95184 | -91.18050 | 32891 ft | 578 kts | 105° |
| 2026-05-05 18:19 | 36.93248 | -91.08308 | 32899 ft | 578 kts | 105° |
| 2026-05-05 18:20 | 36.91311 | -90.98559 | 32893 ft | 578 kts | 104° |
| 2026-05-05 18:20 | 36.89366 | -90.88828 | 32895 ft | 577 kts | 105° |
| 2026-05-05 18:21 | 36.87405 | -90.79098 | 32884 ft | 577 kts | 105° |
| 2026-05-05 18:21 | 36.85439 | -90.69393 | 32873 ft | 577 kts | 105° |
| 2026-05-05 18:22 | 36.83470 | -90.59693 | 32870 ft | 576 kts | 105° |
| 2026-05-05 18:22 | 36.81490 | -90.50003 | 32869 ft | 576 kts | 105° |
| 2026-05-05 18:23 | 36.79512 | -90.40340 | 32861 ft | 575 kts | 105° |
| 2026-05-05 18:23 | 36.77527 | -90.30673 | 32863 ft | 574 kts | 105° |
| 2026-05-05 18:24 | 36.75530 | -90.21032 | 32858 ft | 574 kts | 105° |
| 2026-05-05 18:24 | 36.73527 | -90.11392 | 32860 ft | 574 kts | 105° |
| 2026-05-05 18:25 | 36.71515 | -90.01761 | 32869 ft | 574 kts | 105° |
| 2026-05-05 18:25 | 36.69505 | -89.92140 | 32879 ft | 574 kts | 105° |
| 2026-05-05 18:26 | 36.67492 | -89.82524 | 32890 ft | 573 kts | 105° |
| 2026-05-05 18:26 | 36.65465 | -89.72938 | 32887 ft | 572 kts | 105° |
| 2026-05-05 18:27 | 36.63436 | -89.63368 | 32880 ft | 571 kts | 105° |
| 2026-05-05 18:27 | 36.61520 | -89.53766 | 32879 ft | 571 kts | 102° |
| 2026-05-05 18:28 | 36.59375 | -89.39198 | 32882 ft | 571 kts | 99° |
| 2026-05-05 18:28 | 36.57962 | -89.29492 | 32885 ft | 571 kts | 101° |
| 2026-05-05 18:29 | 36.56392 | -89.19806 | 32896 ft | 571 kts | 101° |
| 2026-05-05 18:29 | 36.54768 | -89.10152 | 32891 ft | 570 kts | 101° |
| 2026-05-05 18:30 | 36.53170 | -89.00494 | 32906 ft | 570 kts | 101° |
| 2026-05-05 18:30 | 36.51610 | -88.90844 | 32910 ft | 570 kts | 101° |
| 2026-05-05 18:31 | 36.50040 | -88.81194 | 32902 ft | 570 kts | 101° |
| 2026-05-05 18:31 | 36.48448 | -88.71547 | 32903 ft | 569 kts | 101° |
| 2026-05-05 18:32 | 36.46839 | -88.61912 | 32911 ft | 569 kts | 101° |
| 2026-05-05 18:32 | 36.45225 | -88.52300 | 32917 ft | 569 kts | 101° |
| 2026-05-05 18:33 | 36.43614 | -88.42690 | 32921 ft | 568 kts | 101° |
| 2026-05-05 18:33 | 36.41989 | -88.33094 | 32929 ft | 568 kts | 101° |
| 2026-05-05 18:34 | 36.40357 | -88.23511 | 32931 ft | 567 kts | 101° |
| 2026-05-05 18:34 | 36.38717 | -88.13925 | 32931 ft | 567 kts | 101° |
| 2026-05-05 18:35 | 36.37084 | -88.04423 | 32931 ft | 567 kts | 101° |
| 2026-05-05 18:35 | 36.35442 | -87.94855 | 32937 ft | 567 kts | 101° |
| 2026-05-05 18:36 | 36.33792 | -87.85296 | 32938 ft | 566 kts | 102° |
| 2026-05-05 18:36 | 36.32133 | -87.75750 | 32941 ft | 566 kts | 102° |
| 2026-05-05 18:37 | 36.30464 | -87.66209 | 32947 ft | 566 kts | 102° |
| 2026-05-05 18:37 | 36.28795 | -87.56677 | 32953 ft | 566 kts | 101° |
| 2026-05-05 18:38 | 36.27120 | -87.47150 | 32957 ft | 566 kts | 101° |
| 2026-05-05 18:38 | 36.25426 | -87.37637 | 32959 ft | 565 kts | 102° |
| 2026-05-05 18:39 | 36.23722 | -87.28142 | 32959 ft | 565 kts | 102° |
| 2026-05-05 18:39 | 36.22020 | -87.18650 | 32962 ft | 564 kts | 102° |
| 2026-05-05 18:40 | 36.20311 | -87.09172 | 32963 ft | 564 kts | 102° |
| 2026-05-05 18:40 | 36.18606 | -86.99714 | 32974 ft | 563 kts | 102° |
| 2026-05-05 18:41 | 36.16895 | -86.90275 | 32988 ft | 562 kts | 101° |
| 2026-05-05 18:41 | 36.15178 | -86.80842 | 32989 ft | 561 kts | 102° |
| 2026-05-05 18:42 | 36.13444 | -86.71440 | 32982 ft | 560 kts | 102° |
| 2026-05-05 18:42 | 36.11703 | -86.62061 | 32987 ft | 559 kts | 101° |
| 2026-05-05 18:43 | 36.09976 | -86.52688 | 32986 ft | 558 kts | 101° |
| 2026-05-05 18:43 | 36.08244 | -86.43345 | 32999 ft | 557 kts | 101° |
| 2026-05-05 18:44 | 36.06498 | -86.34024 | 32984 ft | 556 kts | 101° |
| 2026-05-05 18:44 | 36.04743 | -86.24714 | 32984 ft | 556 kts | 101° |
| 2026-05-05 18:45 | 36.02986 | -86.15413 | 32982 ft | 555 kts | 101° |
| 2026-05-05 18:45 | 36.01229 | -86.06139 | 32983 ft | 555 kts | 102° |
| 2026-05-05 18:46 | 35.99472 | -85.96923 | 32990 ft | 555 kts | 102° |
| 2026-05-05 18:46 | 35.97686 | -85.87600 | 32993 ft | 554 kts | 101° |
| 2026-05-05 18:47 | 35.96228 | -85.78338 | 32996 ft | 553 kts | 96° |
| 2026-05-05 18:47 | 35.95173 | -85.68955 | 33002 ft | 552 kts | 95° |
| 2026-05-05 18:48 | 35.94135 | -85.59569 | 32999 ft | 552 kts | 96° |
| 2026-05-05 18:48 | 35.92937 | -85.50198 | 32999 ft | 553 kts | 97° |
| 2026-05-05 18:49 | 35.91666 | -85.40841 | 33006 ft | 553 kts | 97° |
| 2026-05-05 18:49 | 35.90623 | -85.33057 | 33014 ft | 553 kts | 97° |
| 2026-05-05 18:50 | 35.89400 | -85.23694 | 33031 ft | 553 kts | 96° |
| 2026-05-05 18:50 | 35.88179 | -85.14331 | 33049 ft | 553 kts | 96° |
| 2026-05-05 18:51 | 35.86939 | -85.04971 | 33055 ft | 553 kts | 97° |
| 2026-05-05 18:51 | 35.85685 | -84.95611 | 33059 ft | 553 kts | 97° |
| 2026-05-05 18:52 | 35.84424 | -84.86268 | 33055 ft | 553 kts | 97° |
| 2026-05-05 18:52 | 35.83162 | -84.76914 | 33050 ft | 553 kts | 96° |
| 2026-05-05 18:53 | 35.81903 | -84.67569 | 33050 ft | 552 kts | 94° |
| 2026-05-05 18:53 | 35.81890 | -84.58243 | 33021 ft | 535 kts | 79° |
| 2026-05-05 18:54 | 35.82213 | -84.53751 | 33020 ft | 521 kts | 79° |
| 2026-05-05 18:54 | 35.82531 | -84.49314 | 33023 ft | 517 kts | 79° |
| 2026-05-05 18:54 | 35.83162 | -84.40504 | 33029 ft | 516 kts | 79° |
| 2026-05-05 18:55 | 35.83785 | -84.31693 | 33034 ft | 516 kts | 79° |
| 2026-05-05 18:55 | 35.84394 | -84.22889 | 33037 ft | 516 kts | 79° |
| 2026-05-05 18:56 | 35.84989 | -84.14072 | 33035 ft | 516 kts | 79° |
| 2026-05-05 18:56 | 35.85579 | -84.05260 | 33030 ft | 516 kts | 79° |